Weather at Palm Beach County Judicial Center Heliport

Public forecast

Using degrees Fahrenheit for public forecast. Weather courtesy of forecast.io.

Closest aviation weather report (METAR) to Palm Beach County Judicial Center Heliport

Closest report is Palm Beach International Airport, 2.9 nm (5.5 km) SW.

2024/05/21 01:53 (retrieved 19 minutes ago)

KPBI 210153Z 36009KT 10SM FEW035 SCT055 27/23 A2990 RMK AO2 SLP123 T02720228

Closest aviation forecast (TAF) to Palm Beach County Judicial Center Heliport

Forecast is more than 12 hours old.

Closest forecast is Homestead ARB Airport, 75.8 nm (140.3 km) SSW.

2024/05/19 19:00 (retrieved 1 day ago)

TAF KHST 191900Z 1919/2101 21012KT 9999 SCT035 SCT180 QNH2986INS TEMPO 1920/1923 9000 -SHRA VCTS BKN025CB BECMG 1923/1924 25009KT 9999 NSW SCT025 SCT050 BKN120 QNH2985INS TEMPO 2010/2015 8000 -SHRA VCTS BKN020CB BKN080 BECMG 2014/2015 26010G15KT 9999 VCSH SCT025 BKN050 QNH2984INS BECMG 2022/2023 29009KT 9999 VCSH SCT025 BKN050 QNH2984INS TX35/1919Z TN25/2011Z